Era, TX (76238)

6:10 PM CDT on July 24, 2016 (GMT -0500)
Sanger/Bolivar | | Change Station

Elev 804 ft 33.41 °N, 97.25 °W | Updated 21 seconds ago

Clear
Clear
96.8 °F
Feels Like 92 °F
N
4.3
Wind Variable Wind from East
Gusts 4.9 mph

Today
High -- | Low -- °F
--% Chance of Precip.
Yesterday
High -- | Low -- °F
Precip. -- in
Pressure 29.92 in
Visibility 10.0 miles
Clouds Clear
Heat Index 92 °F
Dew Point 31 °F
Humidity 10%
Rainfall 0.00 in
Snow Depth Not available.
6:36 AM 8:34 PM
Waning Gibbous, 72% visible
METAR KGLE 242255Z AUTO 13008KT 10SM CLR 36/19 A2992 RMK AO2 T03550185
Pressure 29.92 in
Visibility 10.0 miles
Clouds Clear
Heat Index 92 °F
Dew Point 31 °F
Humidity 10%
Rainfall 0.00 in
Snow Depth Not available.
6:36 AM 8:34 PM
Waning Gibbous, 72% visible
METAR KGLE 242255Z AUTO 13008KT 10SM CLR 36/19 A2992 RMK AO2 T03550185

10-Day Weather Forecast

Almanac

Astronomy

Jul. 24, 2016 Rise Set
Actual Time
Civil Twilight
Nautical Twilight
Astronomical Twilight
Moon
Length of Visible Light
Length of Day
Tomorrow will be .
, % of the Moon is Illuminated

Today's Extremes

State Highs State Lows

Community

WunderPhotos

Upload Photos

1,927,204 photos uploaded!

WunderBlog® & News

Nearby

Air Quality

  Air Quality AQ Index Pollutant
Not available.

Snow Depth

Station Depth Elevation

Earthquake Activity

City Distance Mag. Time & Date
Minimum magnitude displayed is 2.5.

Coastal Water Temperatures

Place Temperature

Stations

Nearby Weather Stations

Station Location Temp. Windchill Dew Point Humidity Wind Precip. Elev Updated Type
                   

Watches & Warnings

There are currently no watches in effect.